sensor_id;sensor_type;location;lat;lon;timestamp;temperature;humidity
65598;SHT31;52267;51.984;20.956;2023-04-01T00:00:57;9.40;88.28
65598;SHT31;52267;51.984;20.956;2023-04-01T00:03:26;9.37;88.17
65598;SHT31;52267;51.984;20.956;2023-04-01T00:05:55;9.31;88.03
65598;SHT31;52267;51.984;20.956;2023-04-01T00:08:24;9.24;88.16
65598;SHT31;52267;51.984;20.956;2023-04-01T00:10:53;9.18;88.12
65598;SHT31;52267;51.984;20.956;2023-04-01T00:13:20;9.11;88.39
65598;SHT31;52267;51.984;20.956;2023-04-01T00:15:48;9.07;88.45
65598;SHT31;52267;51.984;20.956;2023-04-01T00:18:15;9.03;88.62
65598;SHT31;52267;51.984;20.956;2023-04-01T00:20:46;8.97;88.92
65598;SHT31;52267;51.984;20.956;2023-04-01T00:23:17;8.93;89.17
65598;SHT31;52267;51.984;20.956;2023-04-01T00:25:46;8.87;89.98
65598;SHT31;52267;51.984;20.956;2023-04-01T00:28:15;8.85;90.31
65598;SHT31;52267;51.984;20.956;2023-04-01T00:30:45;8.87;89.64
65598;SHT31;52267;51.984;20.956;2023-04-01T00:33:13;8.87;89.49
65598;SHT31;52267;51.984;20.956;2023-04-01T00:35:41;8.88;89.25
65598;SHT31;52267;51.984;20.956;2023-04-01T00:38:08;8.89;89.00
65598;SHT31;52267;51.984;20.956;2023-04-01T00:40:44;8.91;88.76
65598;SHT31;52267;51.984;20.956;2023-04-01T00:43:17;8.89;88.76
65598;SHT31;52267;51.984;20.956;2023-04-01T00:45:49;8.88;88.74
65598;SHT31;52267;51.984;20.956;2023-04-01T00:48:17;8.87;88.66
65598;SHT31;52267;51.984;20.956;2023-04-01T00:50:52;8.84;88.62
65598;SHT31;52267;51.984;20.956;2023-04-01T00:53:26;8.78;88.60
65598;SHT31;52267;51.984;20.956;2023-04-01T00:55:58;8.72;88.79
65598;SHT31;52267;51.984;20.956;2023-04-01T00:58:32;8.68;88.80
65598;SHT31;52267;51.984;20.956;2023-04-01T01:01:05;8.63;88.80
65598;SHT31;52267;51.984;20.956;2023-04-01T01:03:32;8.61;88.78
65598;SHT31;52267;51.984;20.956;2023-04-01T01:15:17;8.44;89.56
65598;SHT31;52267;51.984;20.956;2023-04-01T01:27:42;8.42;89.48
65598;SHT31;52267;51.984;20.956;2023-04-01T01:35:53;8.43;89.35
65598;SHT31;52267;51.984;20.956;2023-04-01T01:38:27;8.43;89.26
65598;SHT31;52267;51.984;20.956;2023-04-01T01:40:58;8.45;89.16
65598;SHT31;52267;51.984;20.956;2023-04-01T01:43:29;8.49;89.05
65598;SHT31;52267;51.984;20.956;2023-04-01T01:46:11;8.50;89.07
65598;SHT31;52267;51.984;20.956;2023-04-01T01:48:43;8.51;89.17
65598;SHT31;52267;51.984;20.956;2023-04-01T01:51:12;8.52;89.07
65598;SHT31;52267;51.984;20.956;2023-04-01T01:53:39;8.52;89.03
65598;SHT31;52267;51.984;20.956;2023-04-01T01:56:06;8.53;88.90
65598;SHT31;52267;51.984;20.956;2023-04-01T01:58:44;8.53;89.03
65598;SHT31;52267;51.984;20.956;2023-04-01T02:01:14;8.49;89.34
65598;SHT31;52267;51.984;20.956;2023-04-01T02:03:47;8.47;89.33
65598;SHT31;52267;51.984;20.956;2023-04-01T02:06:16;8.45;89.27
65598;SHT31;52267;51.984;20.956;2023-04-01T02:08:51;8.43;89.20
65598;SHT31;52267;51.984;20.956;2023-04-01T02:11:43;8.40;89.31
65598;SHT31;52267;51.984;20.956;2023-04-01T02:14:25;8.35;89.56
65598;SHT31;52267;51.984;20.956;2023-04-01T02:16:57;8.31;89.77
65598;SHT31;52267;51.984;20.956;2023-04-01T02:19:31;8.28;89.74
65598;SHT31;52267;51.984;20.956;2023-04-01T02:22:28;8.27;89.61
65598;SHT31;52267;51.984;20.956;2023-04-01T02:25:01;8.28;89.45
65598;SHT31;52267;51.984;20.956;2023-04-01T02:27:34;8.25;89.39
65598;SHT31;52267;51.984;20.956;2023-04-01T02:30:02;8.24;89.24
65598;SHT31;52267;51.984;20.956;2023-04-01T02:32:30;8.21;89.16
65598;SHT31;52267;51.984;20.956;2023-04-01T02:34:59;8.18;89.18
65598;SHT31;52267;51.984;20.956;2023-04-01T02:37:29;8.13;89.09
65598;SHT31;52267;51.984;20.956;2023-04-01T02:40:03;8.11;88.97
65598;SHT31;52267;51.984;20.956;2023-04-01T02:42:33;8.07;88.88
65598;SHT31;52267;51.984;20.956;2023-04-01T02:45:01;8.05;88.76
65598;SHT31;52267;51.984;20.956;2023-04-01T02:47:29;8.04;88.67
65598;SHT31;52267;51.984;20.956;2023-04-01T02:49:55;8.02;88.68
65598;SHT31;52267;51.984;20.956;2023-04-01T02:52:25;8.03;88.69
65598;SHT31;52267;51.984;20.956;2023-04-01T02:54:54;8.05;88.73
65598;SHT31;52267;51.984;20.956;2023-04-01T02:57:22;8.05;88.73
65598;SHT31;52267;51.984;20.956;2023-04-01T02:59:50;8.07;88.55
65598;SHT31;52267;51.984;20.956;2023-04-01T03:02:17;8.08;88.42
65598;SHT31;52267;51.984;20.956;2023-04-01T03:04:44;8.09;88.41
65598;SHT31;52267;51.984;20.956;2023-04-01T03:07:12;8.09;88.26
65598;SHT31;52267;51.984;20.956;2023-04-01T03:09:39;8.09;88.17
65598;SHT31;52267;51.984;20.956;2023-04-01T03:12:07;8.08;88.12
65598;SHT31;52267;51.984;20.956;2023-04-01T03:14:34;8.08;88.11
65598;SHT31;52267;51.984;20.956;2023-04-01T03:17:01;8.09;88.14
65598;SHT31;52267;51.984;20.956;2023-04-01T03:19:28;8.09;88.31
65598;SHT31;52267;51.984;20.956;2023-04-01T03:21:55;8.10;88.26
65598;SHT31;52267;51.984;20.956;2023-04-01T03:24:22;8.10;88.16
65598;SHT31;52267;51.984;20.956;2023-04-01T03:26:49;8.11;88.35
65598;SHT31;52267;51.984;20.956;2023-04-01T03:29:16;8.10;88.27
65598;SHT31;52267;51.984;20.956;2023-04-01T03:32:02;8.10;88.29
65598;SHT31;52267;51.984;20.956;2023-04-01T03:34:29;8.12;88.50
65598;SHT31;52267;51.984;20.956;2023-04-01T03:36:57;8.13;88.46
65598;SHT31;52267;51.984;20.956;2023-04-01T03:39:24;8.15;88.52
65598;SHT31;52267;51.984;20.956;2023-04-01T03:41:51;8.16;88.51
65598;SHT31;52267;51.984;20.956;2023-04-01T03:44:18;8.19;88.57
65598;SHT31;52267;51.984;20.956;2023-04-01T03:46:46;8.19;88.69
65598;SHT31;52267;51.984;20.956;2023-04-01T03:49:13;8.20;88.75
65598;SHT31;52267;51.984;20.956;2023-04-01T03:51:41;8.19;88.89
65598;SHT31;52267;51.984;20.956;2023-04-01T03:54:10;8.19;89.10
65598;SHT31;52267;51.984;20.956;2023-04-01T03:56:37;8.19;89.07
65598;SHT31;52267;51.984;20.956;2023-04-01T03:59:05;8.20;89.03
65598;SHT31;52267;51.984;20.956;2023-04-01T04:01:34;8.20;89.06
65598;SHT31;52267;51.984;20.956;2023-04-01T04:04:01;8.20;89.26
65598;SHT31;52267;51.984;20.956;2023-04-01T04:06:29;8.21;89.28
65598;SHT31;52267;51.984;20.956;2023-04-01T04:08:56;8.23;89.39
65598;SHT31;52267;51.984;20.956;2023-04-01T04:11:23;8.23;89.40
65598;SHT31;52267;51.984;20.956;2023-04-01T04:13:50;8.23;89.40
65598;SHT31;52267;51.984;20.956;2023-04-01T04:16:18;8.23;89.40
65598;SHT31;52267;51.984;20.956;2023-04-01T04:18:46;8.24;89.40
65598;SHT31;52267;51.984;20.956;2023-04-01T04:21:13;8.25;89.40
65598;SHT31;52267;51.984;20.956;2023-04-01T04:23:41;8.26;89.38
65598;SHT31;52267;51.984;20.956;2023-04-01T04:26:10;8.27;89.48
65598;SHT31;52267;51.984;20.956;2023-04-01T04:28:40;8.27;89.44
65598;SHT31;52267;51.984;20.956;2023-04-01T04:31:07;8.28;89.44
65598;SHT31;52267;51.984;20.956;2023-04-01T04:33:34;8.29;89.44
65598;SHT31;52267;51.984;20.956;2023-04-01T04:36:03;8.29;89.51
65598;SHT31;52267;51.984;20.956;2023-04-01T04:38:31;8.31;89.52
65598;SHT31;52267;51.984;20.956;2023-04-01T04:40:58;8.32;89.49
65598;SHT31;52267;51.984;20.956;2023-04-01T04:43:27;8.35;89.52
65598;SHT31;52267;51.984;20.956;2023-04-01T04:45:54;8.36;89.49
65598;SHT31;52267;51.984;20.956;2023-04-01T04:48:21;8.38;89.42
65598;SHT31;52267;51.984;20.956;2023-04-01T04:50:48;8.41;89.45
65598;SHT31;52267;51.984;20.956;2023-04-01T04:53:17;8.46;89.40
65598;SHT31;52267;51.984;20.956;2023-04-01T04:55:46;8.48;89.40
65598;SHT31;52267;51.984;20.956;2023-04-01T04:58:15;8.51;89.46
65598;SHT31;52267;51.984;20.956;2023-04-01T05:00:43;8.53;89.55
65598;SHT31;52267;51.984;20.956;2023-04-01T05:03:12;8.56;89.62
65598;SHT31;52267;51.984;20.956;2023-04-01T05:05:39;8.59;89.57
65598;SHT31;52267;51.984;20.956;2023-04-01T05:08:14;8.63;89.77
65598;SHT31;52267;51.984;20.956;2023-04-01T05:10:42;8.65;89.81
65598;SHT31;52267;51.984;20.956;2023-04-01T05:13:09;8.69;89.80
65598;SHT31;52267;51.984;20.956;2023-04-01T05:15:36;8.73;89.79
65598;SHT31;52267;51.984;20.956;2023-04-01T05:18:04;8.77;89.80
65598;SHT31;52267;51.984;20.956;2023-04-01T05:20:31;8.80;89.69
65598;SHT31;52267;51.984;20.956;2023-04-01T05:22:58;8.82;89.73
65598;SHT31;52267;51.984;20.956;2023-04-01T05:25:25;8.82;90.03
65598;SHT31;52267;51.984;20.956;2023-04-01T05:27:52;8.83;90.11
65598;SHT31;52267;51.984;20.956;2023-04-01T05:30:20;8.88;89.98
65598;SHT31;52267;51.984;20.956;2023-04-01T05:32:47;8.92;89.79
65598;SHT31;52267;51.984;20.956;2023-04-01T05:35:14;8.97;89.83
65598;SHT31;52267;51.984;20.956;2023-04-01T05:37:41;9.02;89.72
65598;SHT31;52267;51.984;20.956;2023-04-01T05:40:09;9.06;89.63
65598;SHT31;52267;51.984;20.956;2023-04-01T05:42:36;9.13;89.51
65598;SHT31;52267;51.984;20.956;2023-04-01T05:45:04;9.18;89.41
65598;SHT31;52267;51.984;20.956;2023-04-01T05:47:32;9.25;89.25
65598;SHT31;52267;51.984;20.956;2023-04-01T05:49:59;9.34;89.13
65598;SHT31;52267;51.984;20.956;2023-04-01T05:52:26;9.43;89.03
65598;SHT31;52267;51.984;20.956;2023-04-01T05:54:53;9.52;88.97
65598;SHT31;52267;51.984;20.956;2023-04-01T05:57:20;9.61;88.91
65598;SHT31;52267;51.984;20.956;2023-04-01T05:59:47;9.71;88.98
65598;SHT31;52267;51.984;20.956;2023-04-01T06:02:16;9.84;88.89
65598;SHT31;52267;51.984;20.956;2023-04-01T06:04:45;9.94;88.76
65598;SHT31;52267;51.984;20.956;2023-04-01T06:07:13;10.03;88.65
65598;SHT31;52267;51.984;20.956;2023-04-01T06:09:43;10.04;88.59
65598;SHT31;52267;51.984;20.956;2023-04-01T06:12:22;10.05;88.58
65598;SHT31;52267;51.984;20.956;2023-04-01T06:15:20;10.07;88.50
65598;SHT31;52267;51.984;20.956;2023-04-01T06:21:10;10.10;88.38
65598;SHT31;52267;51.984;20.956;2023-04-01T06:27:01;10.10;88.20
65598;SHT31;52267;51.984;20.956;2023-04-01T06:36:08;10.24;87.94
65598;SHT31;52267;51.984;20.956;2023-04-01T06:40:02;10.40;87.73
65598;SHT31;52267;51.984;20.956;2023-04-01T06:48:39;10.81;87.16
65598;SHT31;52267;51.984;20.956;2023-04-01T06:54:14;10.86;86.82
65598;SHT31;52267;51.984;20.956;2023-04-01T06:56:48;10.81;86.73
65598;SHT31;52267;51.984;20.956;2023-04-01T06:59:22;10.76;86.61
65598;SHT31;52267;51.984;20.956;2023-04-01T07:02:16;10.69;86.59
65598;SHT31;52267;51.984;20.956;2023-04-01T07:05:01;10.64;86.53
65598;SHT31;52267;51.984;20.956;2023-04-01T07:10:23;10.56;86.31
65598;SHT31;52267;51.984;20.956;2023-04-01T07:13:55;10.63;86.07
65598;SHT31;52267;51.984;20.956;2023-04-01T07:16:17;10.77;85.70
65598;SHT31;52267;51.984;20.956;2023-04-01T07:22:21;11.14;84.85
65598;SHT31;52267;51.984;20.956;2023-04-01T07:25:13;11.24;84.51
65598;SHT31;52267;51.984;20.956;2023-04-01T07:27:44;11.28;84.35
65598;SHT31;52267;51.984;20.956;2023-04-01T07:30:14;11.31;84.30
65598;SHT31;52267;51.984;20.956;2023-04-01T07:33:10;11.36;84.30
65598;SHT31;52267;51.984;20.956;2023-04-01T07:42:25;11.54;83.15
65598;SHT31;52267;51.984;20.956;2023-04-01T07:47:47;11.58;83.18
65598;SHT31;52267;51.984;20.956;2023-04-01T07:50:29;11.51;83.11
65598;SHT31;52267;51.984;20.956;2023-04-01T07:56:10;11.38;82.92
65598;SHT31;52267;51.984;20.956;2023-04-01T08:02:48;11.22;82.69
65598;SHT31;52267;51.984;20.956;2023-04-01T08:10:58;11.20;82.88
65598;SHT31;52267;51.984;20.956;2023-04-01T08:13:53;11.29;82.76
65598;SHT31;52267;51.984;20.956;2023-04-01T08:22:37;11.52;82.00
65598;SHT31;52267;51.984;20.956;2023-04-01T08:25:20;11.65;81.98
65598;SHT31;52267;51.984;20.956;2023-04-01T08:28:03;11.71;81.60
65598;SHT31;52267;51.984;20.956;2023-04-01T08:31:11;11.76;81.70
65598;SHT31;52267;51.984;20.956;2023-04-01T08:33:46;11.74;81.27
65598;SHT31;52267;51.984;20.956;2023-04-01T08:36:19;11.72;80.70
65598;SHT31;52267;51.984;20.956;2023-04-01T08:39:09;11.72;81.00
65598;SHT31;52267;51.984;20.956;2023-04-01T08:50:31;11.60;80.94
65598;SHT31;52267;51.984;20.956;2023-04-01T08:53:41;11.50;80.78
65598;SHT31;52267;51.984;20.956;2023-04-01T09:38:59;11.55;79.85
65598;SHT31;52267;51.984;20.956;2023-04-01T09:44:39;11.50;79.94
65598;SHT31;52267;51.984;20.956;2023-04-01T09:50:03;11.51;79.95
65598;SHT31;52267;51.984;20.956;2023-04-01T10:14:39;11.83;78.85
65598;SHT31;52267;51.984;20.956;2023-04-01T10:17:31;11.85;79.06
65598;SHT31;52267;51.984;20.956;2023-04-01T10:26:56;11.84;79.55
65598;SHT31;52267;51.984;20.956;2023-04-01T10:39:10;11.96;79.28
65598;SHT31;52267;51.984;20.956;2023-04-01T11:09:54;11.56;80.52
65598;SHT31;52267;51.984;20.956;2023-04-01T11:16:12;11.42;81.20
65598;SHT31;52267;51.984;20.956;2023-04-01T11:36:48;10.88;82.80
65598;SHT31;52267;51.984;20.956;2023-04-01T11:45:37;10.85;83.42
65598;SHT31;52267;51.984;20.956;2023-04-01T11:48:15;10.90;83.37
65598;SHT31;52267;51.984;20.956;2023-04-01T11:56:58;10.85;84.18
65598;SHT31;52267;51.984;20.956;2023-04-01T12:07:55;10.90;83.98
65598;SHT31;52267;51.984;20.956;2023-04-01T12:16:19;11.06;83.84
65598;SHT31;52267;51.984;20.956;2023-04-01T12:19:18;11.09;83.64
65598;SHT31;52267;51.984;20.956;2023-04-01T12:30:50;11.21;83.72
65598;SHT31;52267;51.984;20.956;2023-04-01T12:33:37;11.20;83.78
65598;SHT31;52267;51.984;20.956;2023-04-01T12:48:34;11.51;83.83
65598;SHT31;52267;51.984;20.956;2023-04-01T12:51:25;11.66;83.73
65598;SHT31;52267;51.984;20.956;2023-04-01T13:03:09;12.07;83.43
65598;SHT31;52267;51.984;20.956;2023-04-01T13:17:35;12.21;83.01
65598;SHT31;52267;51.984;20.956;2023-04-01T13:28:37;12.41;82.86
65598;SHT31;52267;51.984;20.956;2023-04-01T13:31:19;12.42;82.48
65598;SHT31;52267;51.984;20.956;2023-04-01T13:39:56;12.67;81.68
65598;SHT31;52267;51.984;20.956;2023-04-01T13:43:11;12.85;81.29
65598;SHT31;52267;51.984;20.956;2023-04-01T13:45:34;12.93;80.41
65598;SHT31;52267;51.984;20.956;2023-04-01T13:48:22;12.94;80.37
65598;SHT31;52267;51.984;20.956;2023-04-01T13:57:07;13.11;80.23
65598;SHT31;52267;51.984;20.956;2023-04-01T14:18:42;13.41;77.93
65598;SHT31;52267;51.984;20.956;2023-04-01T14:21:38;13.30;77.65
65598;SHT31;52267;51.984;20.956;2023-04-01T14:24:24;13.23;78.05
65598;SHT31;52267;51.984;20.956;2023-04-01T14:27:16;13.20;78.28
65598;SHT31;52267;51.984;20.956;2023-04-01T14:47:54;12.78;78.50
65598;SHT31;52267;51.984;20.956;2023-04-01T14:50:41;12.66;78.58
65598;SHT31;52267;51.984;20.956;2023-04-01T14:55:53;12.39;79.24
65598;SHT31;52267;51.984;20.956;2023-04-01T14:58:46;12.21;79.88
65598;SHT31;52267;51.984;20.956;2023-04-01T15:06:55;11.74;81.09
65598;SHT31;52267;51.984;20.956;2023-04-01T15:13:35;11.45;82.04
65598;SHT31;52267;51.984;20.956;2023-04-01T15:21:41;11.22;82.58
65598;SHT31;52267;51.984;20.956;2023-04-01T15:24:30;11.19;82.74
65598;SHT31;52267;51.984;20.956;2023-04-01T15:27:54;11.12;83.38
65598;SHT31;52267;51.984;20.956;2023-04-01T15:30:58;11.08;83.21
65598;SHT31;52267;51.984;20.956;2023-04-01T15:33:44;11.06;83.23
65598;SHT31;52267;51.984;20.956;2023-04-01T15:44:50;10.90;83.61
65598;SHT31;52267;51.984;20.956;2023-04-01T15:47:42;10.86;83.65
65598;SHT31;52267;51.984;20.956;2023-04-01T15:53:13;10.84;83.73
65598;SHT31;52267;51.984;20.956;2023-04-01T15:55:57;10.79;83.73
65598;SHT31;52267;51.984;20.956;2023-04-01T15:58:41;10.74;83.74
65598;SHT31;52267;51.984;20.956;2023-04-01T16:07:11;10.60;84.20
65598;SHT31;52267;51.984;20.956;2023-04-01T16:18:22;10.33;84.47
65598;SHT31;52267;51.984;20.956;2023-04-01T16:23:55;10.21;84.60
65598;SHT31;52267;51.984;20.956;2023-04-01T16:26:37;10.15;84.91
65598;SHT31;52267;51.984;20.956;2023-04-01T16:35:03;9.94;85.16
65598;SHT31;52267;51.984;20.956;2023-04-01T16:38:03;9.92;85.25
65598;SHT31;52267;51.984;20.956;2023-04-01T16:43:37;9.85;85.47
65598;SHT31;52267;51.984;20.956;2023-04-01T16:46:19;9.83;85.25
65598;SHT31;52267;51.984;20.956;2023-04-01T16:54:30;9.76;85.67
65598;SHT31;52267;51.984;20.956;2023-04-01T17:11:44;9.60;85.58
65598;SHT31;52267;51.984;20.956;2023-04-01T17:40:13;9.58;85.58
65598;SHT31;52267;51.984;20.956;2023-04-01T17:43:00;9.55;85.60
65598;SHT31;52267;51.984;20.956;2023-04-01T17:46:38;9.57;85.53
65598;SHT31;52267;51.984;20.956;2023-04-01T17:49:23;9.58;85.37
65598;SHT31;52267;51.984;20.956;2023-04-01T17:52:16;9.55;85.20
65598;SHT31;52267;51.984;20.956;2023-04-01T17:58:39;9.48;85.13
65598;SHT31;52267;51.984;20.956;2023-04-01T18:09:53;9.39;84.92
65598;SHT31;52267;51.984;20.956;2023-04-01T18:19:06;9.38;84.99
65598;SHT31;52267;51.984;20.956;2023-04-01T18:22:09;9.36;84.99
65598;SHT31;52267;51.984;20.956;2023-04-01T18:25:01;9.35;85.01
65598;SHT31;52267;51.984;20.956;2023-04-01T18:45:14;9.34;84.97
65598;SHT31;52267;51.984;20.956;2023-04-01T18:51:13;9.28;85.11
65598;SHT31;52267;51.984;20.956;2023-04-01T18:56:59;9.25;85.11
65598;SHT31;52267;51.984;20.956;2023-04-01T18:59:34;9.23;85.21
65598;SHT31;52267;51.984;20.956;2023-04-01T19:07:49;9.16;85.19
65598;SHT31;52267;51.984;20.956;2023-04-01T19:13:03;9.11;85.08
65598;SHT31;52267;51.984;20.956;2023-04-01T19:20:04;9.01;85.13
65598;SHT31;52267;51.984;20.956;2023-04-01T19:31:32;8.90;85.06
65598;SHT31;52267;51.984;20.956;2023-04-01T19:37:09;8.85;85.02
65598;SHT31;52267;51.984;20.956;2023-04-01T19:39:56;8.83;84.99
65598;SHT31;52267;51.984;20.956;2023-04-01T19:45:38;8.79;84.87
65598;SHT31;52267;51.984;20.956;2023-04-01T20:00:24;8.68;84.96
65598;SHT31;52267;51.984;20.956;2023-04-01T20:09:41;8.63;85.03
65598;SHT31;52267;51.984;20.956;2023-04-01T20:17:30;8.58;84.88
65598;SHT31;52267;51.984;20.956;2023-04-01T20:27:58;8.53;85.00
65598;SHT31;52267;51.984;20.956;2023-04-01T20:31:16;8.52;85.08
65598;SHT31;52267;51.984;20.956;2023-04-01T20:46:00;8.51;85.00
65598;SHT31;52267;51.984;20.956;2023-04-01T20:51:38;8.51;85.04
65598;SHT31;52267;51.984;20.956;2023-04-01T20:54:24;8.46;85.07
65598;SHT31;52267;51.984;20.956;2023-04-01T20:58:12;8.47;85.06
65598;SHT31;52267;51.984;20.956;2023-04-01T21:17:50;8.44;85.35
65598;SHT31;52267;51.984;20.956;2023-04-01T21:53:32;8.06;85.87
65598;SHT31;52267;51.984;20.956;2023-04-01T22:00:06;7.99;85.85
65598;SHT31;52267;51.984;20.956;2023-04-01T22:05:57;7.94;86.06
65598;SHT31;52267;51.984;20.956;2023-04-01T22:26:58;7.77;86.22
65598;SHT31;52267;51.984;20.956;2023-04-01T22:41:13;7.70;86.10
65598;SHT31;52267;51.984;20.956;2023-04-01T22:43:55;7.68;86.09
65598;SHT31;52267;51.984;20.956;2023-04-01T22:49:28;7.67;86.12
65598;SHT31;52267;51.984;20.956;2023-04-01T22:52:16;7.66;86.09
65598;SHT31;52267;51.984;20.956;2023-04-01T22:54:53;7.65;86.07
65598;SHT31;52267;51.984;20.956;2023-04-01T23:03:19;7.60;86.29
65598;SHT31;52267;51.984;20.956;2023-04-01T23:05:55;7.59;86.24
65598;SHT31;52267;51.984;20.956;2023-04-01T23:16:52;7.55;86.33
65598;SHT31;52267;51.984;20.956;2023-04-01T23:19:49;7.53;86.33
65598;SHT31;52267;51.984;20.956;2023-04-01T23:22:56;7.52;86.32
65598;SHT31;52267;51.984;20.956;2023-04-01T23:25:54;7.52;86.38
65598;SHT31;52267;51.984;20.956;2023-04-01T23:29:01;7.50;86.40
65598;SHT31;52267;51.984;20.956;2023-04-01T23:36:41;7.47;86.27
65598;SHT31;52267;51.984;20.956;2023-04-01T23:39:23;7.47;86.20
65598;SHT31;52267;51.984;20.956;2023-04-01T23:44:41;7.42;86.40
65598;SHT31;52267;51.984;20.956;2023-04-01T23:47:12;7.39;86.43
65598;SHT31;52267;51.984;20.956;2023-04-01T23:49:46;7.36;86.31
65598;SHT31;52267;51.984;20.956;2023-04-01T23:52:22;7.34;86.24
65598;SHT31;52267;51.984;20.956;2023-04-01T23:54:58;7.31;86.30
65598;SHT31;52267;51.984;20.956;2023-04-01T23:57:40;7.30;86.40
